Aérodrome :
LOGIN :

S'inscrire | Disclaimer

   EN    FR    IT 

 










Légende :    VFR   VFR Marginal   IFR   IFR Intensif   IFR Très Intensif
Visi : 
Plafond : 
>= 8 km
>= 3000ft
5 à 8 km
1000 à 3000 ft
1500m à 5 km
500 à 1000 ft
800 à 1500m
200 à 500 ft
< 800m
< 200 ft
Symboles :   Orages  Brouillard  Fortes neiges  Fortes précipitations  Vent > 20 kt
SIGMETs :   Divers  Orages  Givrage  Turbulence  Onde Orograph.  Cendres Volcan.







- Altitude de l'aérodrome : 614 ft
- Code IATA : CRL


EBCI - Charleroi

DERNIER METAR :
  • 121750Z 20007KT 9999 SCT018 SCT021 02/00 Q1013 NOSIG

METARs EXPIRÉS :
  • 121720Z 21005KT 9999 FEW010 01/00 Q1013 NOSIG
  • 121650Z 20006KT 9999 FEW010 01/00 Q1012 NOSIG
  • 121620Z 21006KT 9999 FEW010 02/00 Q1012 NOSIG
  • 121550Z 23006KT 9999 FEW010 02/01 Q1012 NOSIG
  • 121520Z 23007KT 9999 FEW009 SCT012 02/01 Q1011 NOSIG

TAF TAF EBCI
Valide du 12 à 18h jusqu'au 14 à 00h UTC


121710Z 1218/1324 19010KT 9999 FEW020 SCT040
TEMPO 1300/1324 20015G25KT
BECMG 1304/1306 SCT010 BKN012
TEMPO 1306/1310 4000 RADZ SCT005 BKN007
TEMPO 1315/1319 4000 RA SHRA SCT007 BKN010
Pas de NOTAMs connus pour ce terrain.



MET'MAP, la Météo Aéronautique d'un coup d'oeil ! - Copyright ORBIFLY Décembre 2007 - Disclaimer

ORBIFLY MET'MAP TEAM :

Programmation & Développement : Alexandra Zaïnal
Conception & Développement : Baudouin d'Aumeries
Co-Programmation & Développement : Marc-Olivier Méhu
Soutien technique & logistique : Manuel Goepfert

Contact : metmap@orbifly.com




SOURCES & CREDITS :

   NOAA